Latest Weather Observations for Coolangatta

IDQ60901

Issued at 12:11 pm EST Thursday 23 March 2017 (issued every 10 minutes, with the page automatically refreshed every 10 minutes)

About weather observations | Map of Brisbane area stations | Latest observations for Brisbane area | Other Formats
Station Details ID: 040717 Name: COOLANGATTA Lat: -28.17 Lon: 153.51 Height: 4.0 m
Data from the previous 72 hours. | See also: Recent months at Coolangatta
Date/Time
EST
Temp
°C
App
Temp
°C
Dew
Point
°C
Rel
Hum
%
Delta-T
°C
Wind Press
QNH
hPa
Press
MSL
hPa
Rain since
9am
mm
Dir  Spd
km/h
Gust
km/h
Spd
kts
Gust
kts
23/12:00pm 28.4 29.1 22.2 69 4.2 N 22 28 12 15 1015.3 1015.2 0.0
23/11:30am 29.2 30.1 22.7 68 4.4 N 22 28 12 15 1015.7 1015.6 0.0
23/11:00am 28.2 28.9 22.2 70 4.0 N 22 28 12 15 1016.0 1015.9 0.0
23/10:30am 27.7 27.7 21.7 70 4.0 N 24 30 13 16 1016.2 1016.1 0.0
23/10:00am 27.8 28.8 22.1 71 3.8 NNW 20 32 11 17 1016.3 1016.2 0.0
23/09:30am 26.7 29.4 22.8 79 2.6 NW 13 20 7 11 1016.3 1016.2 0.0
23/09:00am 25.5 29.1 23.0 86 1.7 WNW 9 15 5 8 1016.3 1016.2 0.6
23/08:30am 24.8 28.3 22.9 89 1.3 NW 9 13 5 7 1015.9 1015.8 0.6
23/08:00am 24.6 28.4 23.4 93 0.8 NNW 9 13 5 7 1015.8 1015.7 0.6
23/07:30am 23.7 28.4 22.7 94 0.7 WNW 2 7 1 4 1015.5 1015.4 0.6
23/07:00am 23.2 28.1 22.4 95 0.5 CALM 0 0 0 0 1015.2 1015.1 0.4
23/06:30am 22.9 27.7 22.1 95 0.5 CALM 0 0 0 0 1015.0 1014.9 0.4
23/06:00am 22.7 27.4 21.9 95 0.5 CALM 0 0 0 0 1014.8 1014.7 0.4
23/05:30am 22.7 27.4 21.9 95 0.5 CALM 0 0 0 0 1014.7 1014.6 0.4
23/05:00am 22.6 25.9 21.9 96 0.5 WSW 7 9 4 5 1014.5 1014.4 0.4
23/04:30am 22.7 26.6 21.9 95 0.5 WSW 4 7 2 4 1014.2 1014.1 0.4
23/04:00am 22.9 27.6 21.9 94 0.7 CALM 0 0 0 0 1014.0 1013.9 0.4
23/03:30am 22.9 27.7 22.1 95 0.5 CALM 0 0 0 0 1014.0 1013.9 0.4
23/03:00am 22.9 27.5 21.7 93 0.8 CALM 0 0 0 0 1014.1 1014.0 0.4
23/02:30am 22.9 27.6 21.9 94 0.7 CALM 0 0 0 0 1014.1 1014.0 0.4
23/02:00am 23.1 27.9 22.1 94 0.7 CALM 0 0 0 0 1014.1 1014.0 0.4
23/01:30am 23.0 27.0 22.0 94 0.7 W 4 7 2 4 1014.4 1014.3 0.4
23/01:00am 23.1 27.8 21.9 93 0.8 CALM 0 0 0 0 1014.7 1014.6 0.4
23/12:30am 23.3 28.0 21.9 92 0.9 CALM 0 0 0 0 1015.0 1014.9 0.4
23/12:00am 23.4 28.1 22.0 92 0.9 CALM 0 0 0 0 1015.2 1015.1 0.4
 
Date/Time
EST
Temp
°C
App
Temp
°C
Dew
Point
°C
Rel
Hum
%
Delta-T
°C
Wind Press
QNH
hPa
Press
MSL
hPa
Rain since
9am
mm
Dir  Spd
km/h
Gust
km/h
Spd
kts
Gust
kts
22/11:30pm 23.4 26.6 21.7 90 1.1 WNW 7 9 4 5 1015.3 1015.2 0.4
22/11:00pm 23.2 26.0 21.6 91 1.1 WNW 9 11 5 6 1015.4 1015.3 0.4
22/10:30pm 23.2 27.4 21.8 92 0.9 WNW 2 7 1 4 1015.4 1015.3 0.4
22/10:00pm 23.2 26.5 21.8 92 0.9 W 7 9 4 5 1015.7 1015.6 0.4
22/09:30pm 23.5 27.2 22.5 94 0.7 WSW 7 9 4 5 1015.7 1015.6 0.4
22/09:00pm 23.3 26.3 21.9 92 0.9 WNW 9 9 5 5 1015.7 1015.6 0.4
22/08:30pm 23.3 27.1 21.7 91 1.1 WNW 4 7 2 4 1015.4 1015.3 0.4
22/08:00pm 23.5 27.1 22.1 92 0.9 WNW 6 7 3 4 1015.3 1015.2 0.4
22/07:30pm 23.7 27.4 22.3 92 0.9 WNW 6 7 3 4 1015.1 1015.0 0.4
22/07:00pm 24.0 28.5 22.3 90 1.1 W 2 6 1 3 1014.8 1014.7 0.4
22/06:30pm 24.1 27.8 22.2 89 1.3 W 6 7 3 4 1014.6 1014.5 0.4
22/06:00pm 24.4 28.1 22.3 88 1.4 NW 6 13 3 7 1014.3 1014.2 0.4
22/05:30pm 24.8 28.0 21.7 83 2.1 WNW 7 9 4 5 1014.1 1014.0 0.0
22/05:00pm 25.6 28.7 21.5 78 2.7 W 7 11 4 6 1013.9 1013.8 0.0
22/04:30pm 25.6 28.3 21.3 77 2.8 WSW 9 11 5 6 1013.9 1013.8 0.0
22/04:00pm 25.7 28.1 21.6 78 2.7 WNW 11 17 6 9 1013.8 1013.7 0.0
22/03:30pm 26.6 27.4 21.8 75 3.2 N 20 26 11 14 1013.8 1013.7 0.0
22/03:00pm 27.4 28.4 21.7 71 3.8 N 19 24 10 13 1013.8 1013.7 0.0
22/02:30pm 27.3 28.4 21.3 69 4.0 N 17 24 9 13 1013.8 1013.7 0.0
22/02:00pm 27.9 29.0 22.4 72 3.7 NNE 20 24 11 13 1013.8 1013.7 0.0
22/01:30pm 28.7 30.0 22.7 70 4.1 NNE 20 24 11 13 1014.0 1013.9 0.0
22/01:00pm 28.0 29.6 22.2 70 3.9 NNE 17 20 9 11 1014.4 1014.3 0.0
22/12:30pm 28.2 30.7 22.4 71 3.9 N 13 19 7 10 1014.7 1014.6 0.0
22/12:00pm 28.3 30.3 22.3 70 4.1 N 15 22 8 12 1014.9 1014.8 0.0
22/11:30am 27.6 29.5 22.1 72 3.7 N 15 19 8 10 1015.3 1015.2 0.0
22/11:00am 27.5 28.7 22.2 73 3.6 NNE 19 22 10 12 1015.4 1015.3 0.0
22/10:30am 27.6 28.6 22.1 72 3.7 NNE 20 28 11 15 1015.7 1015.6 0.0
22/10:00am 27.9 30.2 22.8 74 3.5 N 15 20 8 11 1016.0 1015.9 0.0
22/09:30am 27.7 28.7 22.2 72 3.7 N 20 24 11 13 1016.2 1016.1 0.0
22/09:00am 27.1 28.1 21.8 73 3.5 N 19 24 10 13 1016.2 1016.1 0.0
22/08:30am 27.6 28.7 21.9 71 3.8 N 19 24 10 13 1016.2 1016.1 0.0
22/08:00am 27.0 28.1 21.3 71 3.8 N 17 22 9 12 1016.1 1016.0 0.0
22/07:30am 25.4 29.0 22.3 83 2.1 W 7 17 4 9 1016.0 1015.9 0.0
22/07:00am 24.3 29.1 22.2 88 1.4 CALM 0 6 0 3 1015.8 1015.7 0.0
22/06:30am 24.0 27.4 21.7 87 1.5 WSW 6 9 3 5 1015.5 1015.4 0.0
22/06:00am 24.0 27.4 21.7 87 1.5 SW 6 11 3 6 1015.3 1015.2 0.0
22/05:30am 25.0 27.9 21.7 82 2.2 NW 9 15 5 8 1015.2 1015.1 0.0
22/05:00am 25.2 27.0 21.9 82 2.2 N 15 20 8 11 1014.9 1014.8 0.0
22/04:30am 25.0 26.9 22.1 84 1.9 N 15 19 8 10 1014.8 1014.7 0.0
22/04:00am 24.8 25.8 21.7 83 2.1 NNE 19 24 10 13 1014.7 1014.6 0.0
22/03:30am 24.2 23.3 22.1 88 1.4 N 30 35 16 19 1014.6 1014.5 0.0
22/03:00am 24.3 23.2 21.8 86 1.7 N 30 35 16 19 1014.6 1014.5 0.0
22/02:30am 25.6 26.2 22.1 81 2.3 NNE 22 28 12 15 1014.6 1014.5 0.0
22/02:00am 24.6 27.3 22.1 86 1.7 E 11 19 6 10 1014.9 1014.8 0.0
22/01:30am 25.6 27.2 22.1 81 2.3 NE 17 30 9 16 1015.1 1015.0 0.0
22/01:00am 25.3 26.3 22.2 83 2.1 NE 20 26 11 14 1015.4 1015.3 0.0
22/12:30am 25.4 26.2 21.7 80 2.5 NE 20 26 11 14 1015.7 1015.6 0.0
22/12:00am 25.7 27.6 22.0 80 2.5 NNE 15 20 8 11 1015.8 1015.7 0.0
 
Date/Time
EST
Temp
°C
App
Temp
°C
Dew
Point
°C
Rel
Hum
%
Delta-T
°C
Wind Press
QNH
hPa
Press
MSL
hPa
Rain since
9am
mm
Dir  Spd
km/h
Gust
km/h
Spd
kts
Gust
kts
21/11:30pm 25.3 27.3 21.6 80 2.5 NNE 13 19 7 10 1016.0 1015.9 0.0
21/11:00pm 25.2 26.3 21.9 82 2.2 NE 19 26 10 14 1016.2 1016.1 0.0
21/10:30pm 25.3 26.4 22.0 82 2.2 NE 19 26 10 14 1016.3 1016.2 0.0
21/10:00pm 25.2 26.1 21.9 82 2.2 NE 20 26 11 14 1016.4 1016.3 0.0
21/09:30pm 25.4 26.3 21.9 81 2.3 NE 20 24 11 13 1016.5 1016.4 0.0
21/09:00pm 25.4 26.3 21.9 81 2.3 NE 20 26 11 14 1016.5 1016.4 0.0
21/08:30pm 25.2 25.9 22.3 84 1.9 NE 22 28 12 15 1016.4 1016.3 0.0
21/08:00pm 25.0 26.6 22.1 84 1.9 NE 17 24 9 13 1016.2 1016.1 0.0
21/07:30pm 25.7 27.2 22.0 80 2.5 NE 17 22 9 12 1015.8 1015.7 0.0
21/07:00pm 25.7 26.8 22.4 82 2.2 NE 20 26 11 14 1015.5 1015.4 0.0
21/06:30pm 25.9 26.7 21.3 76 3.0 NE 19 26 10 14 1015.2 1015.1 0.0
21/06:00pm 26.2 28.4 21.8 77 2.9 NE 13 17 7 9 1015.1 1015.0 0.0
21/05:30pm 26.1 28.0 21.3 75 3.2 NE 13 17 7 9 1015.1 1015.0 0.0
21/05:00pm 26.3 28.1 21.9 77 2.9 NE 15 17 8 9 1014.9 1014.8 0.0
21/04:30pm 26.6 28.2 21.4 73 3.5 NE 15 17 8 9 1014.9 1014.8 0.0
21/04:00pm 26.8 28.2 21.8 74 3.3 NE 17 19 9 10 1015.0 1014.9 0.0
21/03:30pm 27.1 28.5 21.8 73 3.5 NE 17 20 9 11 1015.3 1015.2 0.0
21/03:00pm 27.3 28.7 21.8 72 3.7 NE 17 20 9 11 1015.3 1015.2 0.0
21/02:30pm 27.4 28.4 21.7 71 3.8 NE 19 20 10 11 1015.5 1015.4 0.0
21/02:00pm 27.4 28.4 21.7 71 3.8 NE 19 22 10 12 1015.6 1015.5 0.0
21/01:30pm 27.7 28.5 21.3 68 4.3 NE 19 24 10 13 1015.9 1015.8 0.0
21/01:00pm 27.3 27.9 21.3 69 4.0 NE 20 24 11 13 1016.1 1016.0 0.0
21/12:30pm 27.2 28.6 21.9 73 3.6 NE 17 24 9 13 1016.5 1016.4 0.0
21/12:00pm 26.9 29.4 22.5 77 3.0 NNE 13 19 7 10 1016.7 1016.6 0.0
21/11:30am 27.7 29.3 21.5 69 4.1 NE 15 20 8 11 1017.0 1016.9 0.0
21/11:00am 28.2 29.7 22.0 69 4.2 NE 17 20 9 11 1017.2 1017.1 0.0
21/10:30am 27.9 28.7 21.4 67 4.3 NE 19 24 10 13 1017.4 1017.3 0.0
21/10:00am 27.1 27.4 20.7 68 4.2 NE 20 24 11 13 1017.6 1017.5 0.0
21/09:30am 27.1 28.3 21.4 71 3.8 NE 17 22 9 12 1017.5 1017.4 0.0
21/09:00am 27.1 28.2 21.2 70 3.9 NE 17 22 9 12 1017.3 1017.2 26.6
21/08:30am 26.9 27.7 20.7 69 4.1 NE 17 20 9 11 1017.3 1017.2 26.6
21/08:00am 26.5 26.9 20.6 70 3.9 ENE 19 24 10 13 1017.1 1017.0 26.6
21/07:30am 26.2 27.1 20.8 72 3.6 NE 17 22 9 12 1017.0 1016.9 26.6
21/07:00am 25.5 26.4 20.1 72 3.5 NE 15 20 8 11 1016.7 1016.6 26.6
21/06:30am 25.3 26.1 19.9 72 3.5 NE 15 20 8 11 1016.6 1016.5 26.6
21/06:00am 25.2 25.4 20.2 74 3.2 NE 19 24 10 13 1016.4 1016.3 26.6
21/05:30am 25.2 25.7 20.9 77 2.8 NE 19 26 10 14 1016.1 1016.0 26.6
21/05:00am 25.2 25.5 20.7 76 2.9 ENE 20 24 11 13 1015.9 1015.8 26.6
21/04:30am 25.2 25.5 20.7 76 2.9 ENE 20 26 11 14 1015.7 1015.6 26.6
21/04:00am 25.2 24.8 20.2 74 3.2 ENE 22 28 12 15 1015.7 1015.6 26.6
21/03:30am 25.2 25.4 20.5 75 3.1 NE 20 28 11 15 1015.6 1015.5 26.6
21/03:00am 25.1 25.2 20.4 75 3.1 ENE 20 28 11 15 1015.6 1015.5 26.6
21/02:30am 25.1 24.9 20.6 76 2.9 ENE 22 30 12 16 1015.8 1015.7 26.6
21/02:00am 25.1 24.5 20.6 76 2.9 ENE 24 32 13 17 1015.8 1015.7 26.6
21/01:30am 25.1 24.6 20.8 77 2.8 ENE 24 32 13 17 1015.9 1015.8 26.6
21/01:00am 24.8 24.8 20.9 79 2.6 ENE 22 32 12 17 1016.1 1016.0 26.6
21/12:30am 23.9 24.7 21.4 86 1.6 NE 19 26 10 14 1016.4 1016.3 26.6
21/12:16am 23.6 24.4 21.7 89 1.3 ENE 20 28 11 15 1016.5 1016.4 26.6
21/12:00am 23.4 24.5 22.4 94 0.7 NE 20 28 11 15 1016.6 1016.5 26.6
 
Date/Time
EST
Temp
°C
App
Temp
°C
Dew
Point
°C
Rel
Hum
%
Delta-T
°C
Wind Press
QNH
hPa
Press
MSL
hPa
Rain since
9am
mm
Dir  Spd
km/h
Gust
km/h
Spd
kts
Gust
kts
20/11:49pm 23.7 24.1 22.5 93 0.8 NE 24 33 13 18 1016.8 1016.7 26.4
20/11:46pm 23.9 24.2 22.2 90 1.1 NE 24 33 13 18 1016.8 1016.7 26.4
20/11:30pm 23.5 23.5 21.6 89 1.3 NE 24 33 13 18 1016.8 1016.7 26.2
20/11:25pm 23.7 22.9 21.6 88 1.4 NE 28 35 15 19 1016.9 1016.8 26.0
20/11:00pm 24.3 23.9 21.6 85 1.8 ENE 26 35 14 19 1016.9 1016.8 26.0
20/10:46pm 24.4 24.2 22.1 87 1.5 ENE 26 39 14 21 1016.8 1016.7 26.0
20/10:30pm 23.6 23.9 22.2 92 0.9 E 24 30 13 16 1016.9 1016.8 25.8
20/10:24pm 23.9 24.3 22.5 92 0.9 ENE 24 35 13 19 1016.9 1016.8 25.6
20/10:00pm 24.4 25.6 22.5 89 1.3 E 20 28 11 15 1017.0 1016.9 25.6
20/09:52pm 24.3 25.1 22.4 89 1.3 ENE 22 30 12 16 1017.1 1017.0 25.6
20/09:32pm 24.3 24.8 22.6 90 1.1 ENE 24 33 13 18 1017.3 1017.2 25.6
20/09:30pm 24.3 24.4 22.6 90 1.1 ENE 26 33 14 18 1017.3 1017.2 25.6
20/09:22pm 24.3 24.3 22.4 89 1.3 ENE 26 32 14 17 1017.3 1017.2 25.6
20/09:06pm 24.4 24.8 22.5 89 1.3 ENE 24 32 13 17 1017.3 1017.2 25.6
20/09:00pm 24.4 25.7 22.7 90 1.1 E 20 28 11 15 1017.2 1017.1 25.6
20/08:30pm 25.2 26.4 22.5 85 1.8 ENE 20 32 11 17 1017.1 1017.0 25.4
20/08:11pm 25.0 26.2 22.5 86 1.7 ENE 20 30 11 16 1017.0 1016.9 25.4
20/08:00pm 24.8 25.1 22.3 86 1.7 ENE 24 32 13 17 1016.9 1016.8 25.4
20/07:39pm 25.0 25.5 22.7 87 1.5 ENE 24 32 13 17 1016.7 1016.6 25.4
20/07:30pm 24.9 25.7 22.4 86 1.7 ENE 22 30 12 16 1016.7 1016.6 25.4
20/07:00pm 25.4 26.4 22.1 82 2.2 ENE 20 28 11 15 1016.4 1016.3 25.4
20/06:30pm 25.4 26.4 22.1 82 2.2 NE 20 28 11 15 1016.1 1016.0 25.4
20/06:09pm 25.1 26.0 22.0 83 2.1 ENE 20 28 11 15 1015.8 1015.7 25.4
20/06:00pm 24.8 26.0 22.5 87 1.5 ENE 20 30 11 16 1015.8 1015.7 25.4
20/05:53pm 24.7 25.4 22.2 86 1.7 ENE 22 37 12 20 1015.8 1015.7 25.4
20/05:30pm 25.6 26.5 21.9 80 2.5 ENE 20 28 11 15 1015.8 1015.7 24.8
20/05:00pm 25.8 26.3 21.9 79 2.6 ENE 22 30 12 16 1015.8 1015.7 24.8
20/04:30pm 25.6 26.9 22.3 82 2.2 ENE 19 24 10 13 1015.6 1015.5 24.8
20/04:00pm 25.6 26.8 22.1 81 2.3 ENE 19 24 10 13 1015.7 1015.6 24.8
20/03:30pm 25.7 25.8 21.8 79 2.6 ENE 24 30 13 16 1015.6 1015.5 24.8
20/03:00pm 26.3 27.1 22.4 79 2.6 ENE 22 32 12 17 1015.4 1015.3 24.8
20/02:30pm 26.4 27.4 22.9 81 2.4 ENE 22 32 12 17 1015.4 1015.3 24.8
20/02:00pm 25.9 26.2 23.0 84 2.0 ENE 26 35 14 19 1015.6 1015.5 24.8
20/01:30pm 26.0 25.9 22.3 80 2.5 ENE 26 33 14 18 1015.8 1015.7 24.4
20/01:00pm 26.2 25.8 22.3 79 2.6 ENE 28 39 15 21 1015.9 1015.8 24.4
20/12:30pm 25.9 25.6 22.6 82 2.2 ENE 28 37 15 20 1016.2 1016.1 24.4

Latest Capital City Observations: Canberra | Sydney | Melbourne | Brisbane | Adelaide | Perth | Hobart | Darwin

Other Formats:

Comma delimited format used in spreadsheet applications
http://www.bom.gov.au/fwo/IDQ60901/IDQ60901.94592.axf

JavaScript Object Notation format (JSON) in row-major order
http://www.bom.gov.au/fwo/IDQ60901/IDQ60901.94592.json